createdAt,value
2018-08-25T00:00:43.763Z,135.00
2018-08-25T00:01:43.832Z,180.00
2018-08-25T00:02:43.889Z,22.50
2018-08-25T00:03:43.806Z,22.50
2018-08-25T00:04:43.896Z,315.00
2018-08-25T00:05:43.902Z,315.00
2018-08-25T00:06:43.891Z,270.00
2018-08-25T00:07:43.895Z,337.50
2018-08-25T00:08:43.804Z,337.50
2018-08-25T00:09:43.802Z,0.00
2018-08-25T00:10:43.829Z,112.50
2018-08-25T00:11:43.809Z,67.50
2018-08-25T00:12:43.789Z,315.00
2018-08-25T00:13:43.813Z,315.00
2018-08-25T00:14:43.905Z,270.00
2018-08-25T00:15:43.876Z,270.00
2018-08-25T00:16:43.901Z,45.00
2018-08-25T00:17:43.845Z,247.50
2018-08-25T00:18:43.900Z,180.00
2018-08-25T00:19:43.815Z,180.00
2018-08-25T00:20:43.906Z,180.00
2018-08-25T00:21:43.784Z,180.00
2018-08-25T00:22:43.899Z,90.00
2018-08-25T00:23:43.845Z,45.00
2018-08-25T00:24:43.866Z,45.00
2018-08-25T00:25:43.863Z,270.00
2018-08-25T00:26:43.812Z,67.50
2018-08-25T00:27:43.867Z,22.50
2018-08-25T00:28:43.869Z,22.50
2018-08-25T00:29:43.801Z,292.50
2018-08-25T00:30:43.868Z,225.00
2018-08-25T00:31:43.850Z,270.00
2018-08-25T00:32:43.877Z,247.50
2018-08-25T00:33:43.911Z,247.50
2018-08-25T00:34:43.911Z,270.00
2018-08-25T00:35:43.826Z,225.00
2018-08-25T00:36:43.871Z,67.50
2018-08-25T00:37:43.869Z,67.50
2018-08-25T00:38:43.870Z,67.50
2018-08-25T00:39:43.930Z,90.00
2018-08-25T00:40:43.893Z,157.50
2018-08-25T00:41:43.893Z,157.50
2018-08-25T00:42:43.863Z,202.50
2018-08-25T00:43:43.930Z,112.50
2018-08-25T00:44:43.861Z,202.50
2018-08-25T00:45:43.930Z,202.50
2018-08-25T00:46:43.862Z,247.50
2018-08-25T00:47:43.923Z,135.00
2018-08-25T00:48:43.932Z,67.50
2018-08-25T00:49:43.869Z,90.00
2018-08-25T00:50:43.863Z,90.00
2018-08-25T00:51:43.933Z,45.00
2018-08-25T00:52:43.901Z,112.50
2018-08-25T00:53:43.820Z,157.50
2018-08-25T00:54:43.839Z,67.50
2018-08-25T00:55:43.819Z,112.50
2018-08-25T00:56:43.845Z,135.00
2018-08-25T00:57:43.906Z,112.50
2018-08-25T00:58:43.904Z,135.00
2018-08-25T00:59:43.910Z,135.00
2018-08-25T01:00:43.808Z,112.50
2018-08-25T01:01:43.904Z,90.00
2018-08-25T01:02:43.823Z,90.00
2018-08-25T01:03:43.911Z,90.00
2018-08-25T01:04:43.853Z,90.00
2018-08-25T01:05:43.917Z,112.50
2018-08-25T01:06:43.848Z,90.00
2018-08-25T01:07:43.896Z,90.00
2018-08-25T01:08:43.855Z,90.00
2018-08-25T01:09:43.833Z,67.50
2018-08-25T01:10:43.811Z,112.50
2018-08-25T01:11:43.833Z,90.00
2018-08-25T01:12:43.805Z,67.50
2018-08-25T01:13:43.939Z,90.00
2018-08-25T01:14:43.799Z,90.00
2018-08-25T01:15:43.886Z,112.50
2018-08-25T01:16:43.897Z,112.50
2018-08-25T01:17:43.896Z,112.50
2018-08-25T01:18:43.847Z,112.50
2018-08-25T01:19:43.896Z,90.00
2018-08-25T01:20:43.852Z,90.00
2018-08-25T01:21:43.808Z,157.50
2018-08-25T01:22:43.955Z,157.50
2018-08-25T01:23:43.911Z,90.00
2018-08-25T01:24:43.957Z,112.50
2018-08-25T01:25:43.973Z,112.50
2018-08-25T01:26:43.893Z,135.00
2018-08-25T01:27:43.961Z,157.50
2018-08-25T01:28:43.929Z,180.00
2018-08-25T01:29:43.961Z,112.50
2018-08-25T01:30:43.899Z,112.50
2018-08-25T01:31:43.961Z,90.00
2018-08-25T01:32:43.965Z,112.50
2018-08-25T01:33:43.963Z,135.00
2018-08-25T01:34:43.971Z,157.50
2018-08-25T01:35:43.988Z,90.00
2018-08-25T01:36:43.897Z,157.50
2018-08-25T01:37:43.898Z,112.50
2018-08-25T01:38:43.965Z,157.50
2018-08-25T01:39:43.896Z,112.50
2018-08-25T01:40:43.849Z,112.50
2018-08-25T01:41:43.906Z,157.50
2018-08-25T01:42:43.859Z,112.50
2018-08-25T01:43:43.934Z,135.00
2018-08-25T01:44:43.840Z,112.50
2018-08-25T01:45:43.931Z,90.00
2018-08-25T01:46:43.968Z,135.00
2018-08-25T01:47:43.901Z,157.50
2018-08-25T01:48:44.003Z,112.50
2018-08-25T01:49:43.862Z,112.50
2018-08-25T01:50:43.886Z,135.00
2018-08-25T01:51:43.933Z,157.50
2018-08-25T01:52:43.977Z,135.00
2018-08-25T01:53:43.913Z,112.50
2018-08-25T01:54:43.977Z,112.50
2018-08-25T01:55:43.907Z,135.00
2018-08-25T01:56:43.938Z,112.50
2018-08-25T01:57:43.905Z,90.00
2018-08-25T01:58:43.986Z,157.50
2018-08-25T01:59:43.981Z,157.50
2018-08-25T02:00:43.916Z,157.50
2018-08-25T02:01:43.993Z,135.00
2018-08-25T02:02:43.974Z,135.00
2018-08-25T02:03:43.986Z,180.00
2018-08-25T02:04:43.924Z,135.00
2018-08-25T02:05:43.986Z,157.50
2018-08-25T02:06:43.923Z,157.50
2018-08-25T02:07:43.918Z,180.00
2018-08-25T02:08:43.990Z,157.50
2018-08-25T02:09:43.923Z,202.50
2018-08-25T02:10:43.992Z,225.00
2018-08-25T02:11:44.007Z,202.50
2018-08-25T02:12:43.956Z,157.50
2018-08-25T02:13:43.971Z,157.50
2018-08-25T02:14:43.976Z,157.50
2018-08-25T02:15:43.917Z,112.50
2018-08-25T02:16:43.881Z,135.00
2018-08-25T02:17:43.975Z,135.00
2018-08-25T02:18:43.863Z,157.50
2018-08-25T02:19:43.866Z,135.00
2018-08-25T02:20:43.866Z,157.50
2018-08-25T02:21:43.983Z,135.00
2018-08-25T02:22:43.903Z,67.50
2018-08-25T02:23:43.995Z,90.00
2018-08-25T02:24:43.879Z,135.00
2018-08-25T02:25:43.895Z,112.50
2018-08-25T02:26:43.869Z,180.00
2018-08-25T02:27:43.932Z,112.50
2018-08-25T02:28:43.865Z,135.00
2018-08-25T02:29:43.969Z,135.00
2018-08-25T02:30:43.885Z,157.50
2018-08-25T02:31:43.994Z,157.50
2018-08-25T02:32:43.945Z,90.00
2018-08-25T02:33:44.005Z,90.00
2018-08-25T02:34:44.022Z,157.50
2018-08-25T02:35:44.007Z,135.00
2018-08-25T02:36:44.008Z,135.00
2018-08-25T02:37:43.941Z,157.50
2018-08-25T02:38:44.093Z,157.50
2018-08-25T02:39:43.941Z,135.00
2018-08-25T02:40:44.012Z,157.50
2018-08-25T02:41:43.937Z,157.50
2018-08-25T02:42:44.016Z,180.00
2018-08-25T02:43:43.951Z,180.00
2018-08-25T02:44:43.945Z,202.50
2018-08-25T02:45:44.017Z,180.00
2018-08-25T02:46:43.948Z,112.50
2018-08-25T02:47:44.017Z,112.50
2018-08-25T02:48:44.017Z,180.00
2018-08-25T02:49:43.946Z,180.00
2018-08-25T02:50:44.018Z,180.00
2018-08-25T02:51:44.022Z,180.00
2018-08-25T02:52:43.946Z,135.00
2018-08-25T02:53:43.920Z,135.00
2018-08-25T02:54:43.952Z,157.50
2018-08-25T02:55:44.009Z,135.00
2018-08-25T02:56:43.931Z,135.00
2018-08-25T02:57:43.970Z,45.00
2018-08-25T02:58:44.013Z,157.50
2018-08-25T02:59:43.930Z,157.50
2018-08-25T03:00:43.975Z,157.50
2018-08-25T03:01:44.012Z,180.00
2018-08-25T03:02:44.030Z,135.00
2018-08-25T03:03:44.032Z,202.50
2018-08-25T03:04:43.905Z,270.00
2018-08-25T03:05:44.029Z,90.00
2018-08-25T03:06:43.962Z,202.50
2018-08-25T03:07:43.956Z,202.50
2018-08-25T03:08:44.033Z,180.00
2018-08-25T03:09:44.037Z,202.50
2018-08-25T03:10:43.970Z,270.00
2018-08-25T03:11:44.032Z,180.00
2018-08-25T03:12:44.032Z,202.50
2018-08-25T03:13:44.086Z,135.00
2018-08-25T03:14:44.034Z,22.50
2018-08-25T03:15:43.967Z,45.00
2018-08-25T03:16:44.063Z,45.00
2018-08-25T03:17:43.967Z,157.50
2018-08-25T03:18:44.039Z,180.00
2018-08-25T03:19:43.984Z,157.50
2018-08-25T03:20:44.045Z,67.50
2018-08-25T03:21:44.062Z,67.50
2018-08-25T03:22:43.968Z,180.00
2018-08-25T03:23:44.037Z,202.50
2018-08-25T03:24:43.968Z,180.00
2018-08-25T03:25:44.047Z,157.50
2018-08-25T03:26:44.042Z,135.00
2018-08-25T03:27:43.979Z,135.00
2018-08-25T03:28:43.979Z,112.50
2018-08-25T03:29:44.047Z,157.50
2018-08-25T03:30:44.048Z,157.50
2018-08-25T03:31:43.981Z,180.00
2018-08-25T03:32:44.016Z,202.50
2018-08-25T03:33:43.956Z,157.50
2018-08-25T03:34:43.948Z,157.50
2018-08-25T03:35:44.042Z,67.50
2018-08-25T03:36:43.999Z,112.50
2018-08-25T03:37:43.988Z,90.00
2018-08-25T03:38:43.937Z,157.50
2018-08-25T03:39:43.912Z,157.50
2018-08-25T03:40:43.953Z,112.50
2018-08-25T03:41:43.992Z,135.00
2018-08-25T03:42:44.021Z,135.00
2018-08-25T03:43:43.934Z,90.00
2018-08-25T03:44:43.961Z,112.50
2018-08-25T03:45:43.993Z,112.50
2018-08-25T03:46:43.988Z,135.00
2018-08-25T03:47:44.007Z,112.50
2018-08-25T03:48:44.057Z,112.50
2018-08-25T03:49:44.057Z,157.50
2018-08-25T03:50:43.939Z,135.00
2018-08-25T03:51:44.023Z,112.50
2018-08-25T03:52:44.031Z,135.00
2018-08-25T03:53:43.964Z,157.50
2018-08-25T03:54:44.061Z,135.00
2018-08-25T03:55:43.967Z,135.00
2018-08-25T03:56:44.063Z,135.00
2018-08-25T03:57:44.008Z,180.00
2018-08-25T03:58:44.037Z,157.50
2018-08-25T03:59:44.051Z,135.00
2018-08-25T04:00:44.028Z,135.00
2018-08-25T04:01:44.091Z,67.50
2018-08-25T04:02:43.973Z,67.50
2018-08-25T04:03:44.020Z,90.00
2018-08-25T04:04:44.041Z,90.00
2018-08-25T04:05:44.034Z,90.00
2018-08-25T04:06:44.041Z,90.00
2018-08-25T04:07:44.058Z,67.50
2018-08-25T04:08:43.954Z,67.50
2018-08-25T04:09:43.934Z,135.00
2018-08-25T04:10:43.964Z,157.50
2018-08-25T04:11:44.029Z,157.50
2018-08-25T04:12:43.997Z,90.00
2018-08-25T04:13:44.040Z,112.50
2018-08-25T04:14:44.038Z,112.50
2018-08-25T04:15:44.009Z,112.50
2018-08-25T04:16:44.006Z,90.00
2018-08-25T04:17:43.937Z,67.50
2018-08-25T04:18:44.032Z,90.00
2018-08-25T04:19:43.989Z,135.00
2018-08-25T04:20:44.008Z,135.00
2018-08-25T04:21:44.026Z,90.00
2018-08-25T04:22:44.063Z,112.50
2018-08-25T04:23:43.989Z,157.50
2018-08-25T04:24:44.029Z,135.00
2018-08-25T04:25:43.981Z,112.50
2018-08-25T04:26:43.948Z,112.50
2018-08-25T04:27:44.075Z,112.50
2018-08-25T04:28:44.074Z,135.00
2018-08-25T04:29:44.019Z,135.00
2018-08-25T04:30:43.951Z,157.50
2018-08-25T04:31:43.989Z,112.50
2018-08-25T04:32:43.995Z,135.00
2018-08-25T04:33:44.092Z,112.50
2018-08-25T04:34:44.024Z,157.50
2018-08-25T04:35:44.094Z,112.50
2018-08-25T04:36:44.023Z,112.50
2018-08-25T04:37:44.093Z,112.50
2018-08-25T04:38:44.026Z,90.00
2018-08-25T04:39:44.034Z,135.00
2018-08-25T04:40:44.093Z,90.00
2018-08-25T04:41:44.031Z,112.50
2018-08-25T04:42:44.097Z,112.50
2018-08-25T04:43:43.958Z,90.00
2018-08-25T04:44:44.086Z,90.00
2018-08-25T04:45:44.009Z,112.50
2018-08-25T04:46:43.957Z,112.50
2018-08-25T04:47:44.059Z,90.00
2018-08-25T04:48:44.067Z,112.50
2018-08-25T04:49:43.993Z,112.50
2018-08-25T04:50:44.000Z,157.50
2018-08-25T04:51:43.994Z,135.00
2018-08-25T04:52:44.051Z,112.50
2018-08-25T04:53:44.121Z,90.00
2018-08-25T04:54:44.043Z,112.50
2018-08-25T04:55:44.103Z,112.50
2018-08-25T04:56:44.056Z,67.50
2018-08-25T04:57:44.034Z,90.00
2018-08-25T04:58:44.106Z,90.00
2018-08-25T04:59:44.067Z,112.50
2018-08-25T05:00:44.110Z,112.50
2018-08-25T05:01:44.143Z,112.50
2018-08-25T05:02:44.038Z,112.50
2018-08-25T05:03:44.068Z,112.50
2018-08-25T05:04:44.017Z,90.00
2018-08-25T05:05:44.012Z,112.50
2018-08-25T05:06:44.078Z,112.50
2018-08-25T05:07:44.169Z,112.50
2018-08-25T05:08:44.100Z,157.50
2018-08-25T05:09:43.994Z,112.50
2018-08-25T05:10:44.134Z,112.50
2018-08-25T05:11:44.082Z,90.00
2018-08-25T05:12:44.116Z,112.50
2018-08-25T05:13:44.009Z,90.00
2018-08-25T05:14:44.009Z,112.50
2018-08-25T05:15:44.010Z,112.50
2018-08-25T05:16:43.952Z,90.00
2018-08-25T05:17:44.074Z,90.00
2018-08-25T05:18:43.974Z,157.50
2018-08-25T05:19:43.971Z,90.00
2018-08-25T05:20:44.058Z,90.00
2018-08-25T05:21:43.956Z,135.00
2018-08-25T05:22:43.975Z,90.00
2018-08-25T05:23:44.120Z,90.00
2018-08-25T05:24:44.144Z,157.50
2018-08-25T05:26:44.123Z,90.00
2018-08-25T05:27:44.127Z,112.50
2018-08-25T05:28:44.051Z,112.50
2018-08-25T05:29:44.134Z,112.50
2018-08-25T05:30:44.056Z,112.50
2018-08-25T05:31:44.128Z,135.00
2018-08-25T05:32:44.056Z,90.00
2018-08-25T05:33:44.131Z,90.00
2018-08-25T05:34:44.057Z,112.50
2018-08-25T05:35:44.133Z,135.00
2018-08-25T05:36:44.284Z,112.50
2018-08-25T05:37:44.057Z,135.00
2018-08-25T05:38:44.134Z,90.00
2018-08-25T05:39:44.058Z,112.50
2018-08-25T05:40:44.136Z,90.00
2018-08-25T05:41:44.164Z,112.50
2018-08-25T05:42:44.062Z,157.50
2018-08-25T05:43:44.058Z,135.00
2018-08-25T05:44:44.094Z,112.50
2018-08-25T05:45:44.094Z,112.50
2018-08-25T05:46:44.028Z,112.50
2018-08-25T05:47:44.102Z,90.00
2018-08-25T05:48:44.104Z,112.50
2018-08-25T05:49:44.089Z,135.00
2018-08-25T05:50:44.000Z,90.00
2018-08-25T05:51:43.994Z,67.50
2018-08-25T05:52:43.997Z,112.50
2018-08-25T05:53:44.093Z,135.00
2018-08-25T05:54:44.146Z,90.00
2018-08-25T05:55:44.147Z,90.00
2018-08-25T05:56:44.117Z,90.00
2018-08-25T05:57:44.210Z,90.00
2018-08-25T05:58:44.050Z,90.00
2018-08-25T05:59:44.090Z,67.50
2018-08-25T06:00:44.074Z,112.50
2018-08-25T06:01:44.094Z,90.00
2018-08-25T06:02:44.074Z,112.50
2018-08-25T06:03:44.079Z,45.00
2018-08-25T06:04:44.155Z,157.50
2018-08-25T06:05:44.055Z,180.00
2018-08-25T06:06:44.161Z,157.50
2018-08-25T06:07:44.031Z,180.00
2018-08-25T06:08:44.143Z,180.00
2018-08-25T06:09:44.030Z,112.50
2018-08-25T06:10:44.083Z,135.00
2018-08-25T06:11:44.094Z,135.00
2018-08-25T06:12:44.042Z,112.50
2018-08-25T06:13:44.086Z,135.00
2018-08-25T06:14:44.162Z,112.50
2018-08-25T06:15:44.135Z,90.00
2018-08-25T06:16:44.162Z,135.00
2018-08-25T06:17:44.187Z,180.00
2018-08-25T06:18:44.218Z,135.00
2018-08-25T06:19:44.106Z,90.00
2018-08-25T06:20:44.166Z,157.50
2018-08-25T06:21:44.095Z,112.50
2018-08-25T06:22:44.167Z,135.00
2018-08-25T06:23:44.090Z,112.50
2018-08-25T06:24:44.090Z,112.50
2018-08-25T06:25:44.139Z,157.50
2018-08-25T06:26:44.166Z,135.00
2018-08-25T06:27:44.093Z,157.50
2018-08-25T06:28:44.103Z,135.00
2018-08-25T06:29:44.254Z,135.00
2018-08-25T06:30:44.098Z,135.00
2018-08-25T06:31:44.202Z,90.00
2018-08-25T06:32:44.098Z,135.00
2018-08-25T06:33:44.197Z,112.50
2018-08-25T06:34:44.182Z,112.50
2018-08-25T06:35:44.100Z,157.50
2018-08-25T06:36:44.304Z,157.50
2018-08-25T06:37:44.131Z,112.50
2018-08-25T06:38:44.177Z,180.00
2018-08-25T06:39:44.103Z,135.00
2018-08-25T06:40:44.178Z,112.50
2018-08-25T06:41:44.120Z,135.00
2018-08-25T06:42:44.184Z,112.50
2018-08-25T06:43:44.174Z,112.50
2018-08-25T06:44:44.070Z,112.50
2018-08-25T06:45:44.137Z,90.00
2018-08-25T06:46:44.070Z,112.50
2018-08-25T06:47:44.017Z,135.00
2018-08-25T06:48:44.046Z,180.00
2018-08-25T06:49:44.069Z,90.00
2018-08-25T06:50:44.077Z,157.50
2018-08-25T06:51:44.039Z,157.50
2018-08-25T06:52:44.034Z,157.50
2018-08-25T06:53:44.186Z,112.50
2018-08-25T06:54:44.113Z,112.50
2018-08-25T06:55:44.144Z,157.50
2018-08-25T06:56:44.113Z,112.50
2018-08-25T06:57:44.190Z,157.50
2018-08-25T06:58:44.122Z,157.50
2018-08-25T06:59:44.192Z,157.50
2018-08-25T07:00:44.124Z,90.00
2018-08-25T07:01:44.189Z,112.50
2018-08-25T07:02:44.149Z,135.00
2018-08-25T07:03:44.196Z,157.50
2018-08-25T07:04:44.119Z,135.00
2018-08-25T07:05:44.196Z,157.50
2018-08-25T07:06:44.194Z,180.00
2018-08-25T07:07:44.127Z,135.00
2018-08-25T07:08:44.198Z,180.00
2018-08-25T07:09:44.124Z,180.00
2018-08-25T07:10:44.205Z,180.00
2018-08-25T07:11:44.133Z,112.50
2018-08-25T07:12:44.437Z,157.50
2018-08-25T07:13:44.129Z,135.00
2018-08-25T07:14:44.201Z,135.00
2018-08-25T07:15:44.127Z,135.00
2018-08-25T07:16:44.204Z,90.00
2018-08-25T07:17:44.131Z,90.00
2018-08-25T07:18:44.206Z,157.50
2018-08-25T07:19:44.130Z,112.50
2018-08-25T07:20:44.205Z,112.50
2018-08-25T07:21:44.207Z,135.00
2018-08-25T07:22:44.135Z,112.50
2018-08-25T07:23:44.208Z,135.00
2018-08-25T07:24:44.144Z,202.50
2018-08-25T07:25:44.219Z,135.00
2018-08-25T07:26:44.143Z,135.00
2018-08-25T07:27:44.211Z,90.00
2018-08-25T07:28:44.141Z,112.50
2018-08-25T07:29:44.215Z,135.00
2018-08-25T07:30:44.218Z,135.00
2018-08-25T07:31:44.146Z,135.00
2018-08-25T07:32:44.214Z,180.00
2018-08-25T07:33:44.214Z,135.00
2018-08-25T07:34:44.146Z,180.00
2018-08-25T07:35:44.142Z,135.00
2018-08-25T07:36:44.145Z,180.00
2018-08-25T07:37:44.139Z,157.50
2018-08-25T07:38:44.150Z,157.50
2018-08-25T07:39:44.144Z,135.00
2018-08-25T07:40:44.219Z,135.00
2018-08-25T07:41:44.148Z,135.00
2018-08-25T07:42:44.220Z,135.00
2018-08-25T07:43:44.192Z,112.50
2018-08-25T07:44:44.186Z,112.50
2018-08-25T07:45:44.186Z,112.50
2018-08-25T07:46:44.163Z,180.00
2018-08-25T07:47:44.214Z,112.50
2018-08-25T07:48:44.355Z,157.50
2018-08-25T07:49:44.128Z,157.50
2018-08-25T07:50:44.171Z,112.50
2018-08-25T07:51:44.195Z,112.50
2018-08-25T07:52:44.139Z,112.50
2018-08-25T07:53:44.245Z,112.50
2018-08-25T07:54:44.181Z,135.00
2018-08-25T07:55:44.229Z,135.00
2018-08-25T07:56:44.176Z,135.00
2018-08-25T07:57:44.230Z,112.50
2018-08-25T07:58:44.237Z,135.00
2018-08-25T07:59:44.157Z,112.50
2018-08-25T08:00:44.234Z,135.00
2018-08-25T08:01:44.200Z,157.50
2018-08-25T08:02:44.231Z,202.50
2018-08-25T08:03:44.115Z,180.00
2018-08-25T08:04:44.181Z,157.50
2018-08-25T08:05:44.199Z,157.50
2018-08-25T08:06:44.114Z,180.00
2018-08-25T08:07:44.221Z,135.00
2018-08-25T08:08:44.137Z,180.00
2018-08-25T08:09:44.140Z,180.00
2018-08-25T08:10:44.205Z,180.00
2018-08-25T08:11:44.208Z,157.50
2018-08-25T08:12:44.209Z,135.00
2018-08-25T08:13:44.191Z,135.00
2018-08-25T08:14:44.204Z,157.50
2018-08-25T08:15:44.184Z,135.00
2018-08-25T08:16:44.169Z,135.00
2018-08-25T08:17:44.086Z,135.00
2018-08-25T08:18:44.201Z,202.50
2018-08-25T08:19:44.207Z,180.00
2018-08-25T08:20:44.110Z,157.50
2018-08-25T08:21:44.187Z,157.50
2018-08-25T08:22:44.214Z,112.50
2018-08-25T08:23:44.251Z,112.50
2018-08-25T08:24:44.259Z,90.00
2018-08-25T08:25:44.177Z,112.50
2018-08-25T08:26:44.224Z,180.00
2018-08-25T08:27:44.311Z,180.00
2018-08-25T08:28:44.254Z,135.00
2018-08-25T08:29:44.181Z,180.00
2018-08-25T08:30:44.255Z,135.00
2018-08-25T08:31:44.186Z,157.50
2018-08-25T08:32:44.264Z,135.00
2018-08-25T08:33:44.189Z,157.50
2018-08-25T08:34:44.263Z,202.50
2018-08-25T08:35:44.185Z,157.50
2018-08-25T08:36:44.261Z,135.00
2018-08-25T08:37:44.189Z,157.50
2018-08-25T08:38:44.260Z,112.50
2018-08-25T08:39:44.191Z,112.50
2018-08-25T08:40:44.261Z,112.50
2018-08-25T08:41:44.285Z,135.00
2018-08-25T08:42:44.220Z,112.50
2018-08-25T08:43:44.252Z,180.00
2018-08-25T08:44:44.230Z,180.00
2018-08-25T08:45:44.253Z,157.50
2018-08-25T08:46:44.166Z,157.50
2018-08-25T08:47:44.170Z,225.00
2018-08-25T08:48:44.167Z,157.50
2018-08-25T08:49:47.334Z,112.50
2018-08-25T08:50:44.143Z,135.00
2018-08-25T08:51:44.167Z,135.00
2018-08-25T08:52:44.193Z,112.50
2018-08-25T08:53:44.272Z,157.50
2018-08-25T08:54:44.199Z,135.00
2018-08-25T08:55:44.272Z,135.00
2018-08-25T08:56:44.198Z,135.00
2018-08-25T08:57:44.272Z,90.00
2018-08-25T08:58:44.208Z,135.00
2018-08-25T08:59:44.201Z,112.50
2018-08-25T09:00:44.276Z,135.00
2018-08-25T09:01:44.277Z,157.50
2018-08-25T09:02:44.203Z,180.00
2018-08-25T09:03:44.278Z,157.50
2018-08-25T09:04:44.209Z,90.00
2018-08-25T09:05:44.279Z,112.50
2018-08-25T09:06:44.250Z,135.00
2018-08-25T09:07:44.209Z,157.50
2018-08-25T09:08:44.283Z,135.00
2018-08-25T09:09:44.209Z,157.50
2018-08-25T09:10:44.327Z,180.00
2018-08-25T09:11:44.241Z,247.50
2018-08-25T09:12:44.284Z,247.50
2018-08-25T09:13:44.225Z,225.00
2018-08-25T09:14:44.299Z,292.50
2018-08-25T09:15:44.215Z,247.50
2018-08-25T09:16:44.308Z,247.50
2018-08-25T09:17:44.216Z,180.00
2018-08-25T09:18:44.288Z,292.50
2018-08-25T09:19:44.241Z,270.00
2018-08-25T09:20:44.291Z,225.00
2018-08-25T09:21:44.217Z,225.00
2018-08-25T09:22:44.219Z,225.00
2018-08-25T09:23:44.293Z,225.00
2018-08-25T09:24:44.221Z,202.50
2018-08-25T09:25:44.298Z,225.00
2018-08-25T09:26:44.220Z,135.00
2018-08-25T09:27:44.295Z,157.50
2018-08-25T09:28:44.222Z,135.00
2018-08-25T09:29:44.297Z,180.00
2018-08-25T09:30:44.226Z,225.00
2018-08-25T09:31:44.301Z,157.50
2018-08-25T09:32:44.229Z,202.50
2018-08-25T09:33:44.295Z,202.50
2018-08-25T09:34:44.300Z,202.50
2018-08-25T09:35:44.280Z,135.00
2018-08-25T09:36:44.315Z,135.00
2018-08-25T09:37:44.302Z,112.50
2018-08-25T09:38:44.229Z,112.50
2018-08-25T09:39:44.299Z,135.00
2018-08-25T09:40:44.230Z,180.00
2018-08-25T09:41:44.354Z,202.50
2018-08-25T09:42:44.232Z,180.00
2018-08-25T09:43:44.306Z,157.50
2018-08-25T09:44:44.239Z,157.50
2018-08-25T09:45:44.310Z,157.50
2018-08-25T09:46:44.244Z,180.00
2018-08-25T09:47:44.312Z,202.50
2018-08-25T09:48:44.264Z,180.00
2018-08-25T09:49:44.317Z,135.00
2018-08-25T09:50:44.324Z,157.50
2018-08-25T09:51:44.291Z,157.50
2018-08-25T09:52:44.319Z,180.00
2018-08-25T09:53:44.217Z,157.50
2018-08-25T09:54:44.216Z,135.00
2018-08-25T09:55:44.222Z,180.00
2018-08-25T09:56:44.301Z,112.50
2018-08-25T09:57:44.257Z,112.50
2018-08-25T09:58:44.288Z,135.00
2018-08-25T09:59:44.264Z,157.50
2018-08-25T10:00:44.289Z,157.50
2018-08-25T10:01:44.223Z,202.50
2018-08-25T10:02:44.220Z,180.00
2018-08-25T10:03:44.207Z,157.50
2018-08-25T10:04:44.343Z,157.50
2018-08-25T10:05:44.262Z,135.00
2018-08-25T10:06:44.322Z,180.00
2018-08-25T10:07:44.251Z,225.00
2018-08-25T10:08:44.322Z,180.00
2018-08-25T10:09:44.249Z,202.50
2018-08-25T10:10:44.362Z,225.00
2018-08-25T10:11:44.256Z,180.00
2018-08-25T10:12:44.357Z,202.50
2018-08-25T10:13:44.212Z,247.50
2018-08-25T10:14:44.165Z,247.50
2018-08-25T10:15:44.197Z,225.00
2018-08-25T10:16:44.295Z,247.50
2018-08-25T10:17:44.192Z,247.50
2018-08-25T10:18:44.193Z,292.50
2018-08-25T10:19:44.298Z,270.00
2018-08-25T10:20:44.263Z,225.00
2018-08-25T10:21:44.294Z,247.50
2018-08-25T10:22:44.227Z,225.00
2018-08-25T10:23:44.271Z,225.00
2018-08-25T10:24:44.258Z,247.50
2018-08-25T10:25:44.266Z,180.00
2018-08-25T10:26:44.338Z,247.50
2018-08-25T10:27:44.266Z,247.50
2018-08-25T10:28:44.280Z,180.00
2018-08-25T10:29:44.336Z,247.50
2018-08-25T10:30:44.347Z,270.00
2018-08-25T10:31:44.292Z,247.50
2018-08-25T10:32:44.344Z,225.00
2018-08-25T10:33:44.265Z,247.50
2018-08-25T10:34:44.266Z,270.00
2018-08-25T10:35:44.377Z,247.50
2018-08-25T10:36:44.220Z,270.00
2018-08-25T10:37:44.207Z,225.00
2018-08-25T10:38:44.242Z,180.00
2018-08-25T10:39:44.308Z,180.00
2018-08-25T10:40:44.332Z,202.50
2018-08-25T10:41:44.372Z,180.00
2018-08-25T10:42:44.291Z,202.50
2018-08-25T10:43:44.207Z,135.00
2018-08-25T10:44:44.261Z,180.00
2018-08-25T10:45:44.236Z,225.00
2018-08-25T10:46:44.242Z,247.50
2018-08-25T10:47:44.201Z,247.50
2018-08-25T10:48:44.312Z,270.00
2018-08-25T10:49:44.239Z,225.00
2018-08-25T10:50:44.245Z,247.50
2018-08-25T10:51:44.209Z,225.00
2018-08-25T10:52:44.217Z,180.00
2018-08-25T10:53:44.358Z,225.00
2018-08-25T10:54:44.286Z,247.50
2018-08-25T10:55:44.362Z,225.00
2018-08-25T10:56:44.285Z,247.50
2018-08-25T10:57:44.358Z,247.50
2018-08-25T10:58:44.362Z,225.00
2018-08-25T10:59:44.284Z,202.50
2018-08-25T11:00:44.501Z,202.50
2018-08-25T11:01:44.288Z,180.00
2018-08-25T11:02:44.322Z,202.50
2018-08-25T11:03:44.365Z,202.50
2018-08-25T11:04:44.381Z,157.50
2018-08-25T11:05:44.290Z,157.50
2018-08-25T11:06:44.372Z,180.00
2018-08-25T11:07:44.311Z,225.00
2018-08-25T11:08:44.314Z,202.50
2018-08-25T11:09:44.371Z,135.00
2018-08-25T11:10:44.295Z,157.50
2018-08-25T11:11:44.313Z,157.50
2018-08-25T11:12:44.299Z,225.00
2018-08-25T11:13:44.370Z,247.50
2018-08-25T11:14:44.256Z,180.00
2018-08-25T11:15:44.242Z,180.00
2018-08-25T11:16:44.253Z,180.00
2018-08-25T11:17:44.233Z,157.50
2018-08-25T11:18:44.280Z,180.00
2018-08-25T11:19:44.353Z,180.00
2018-08-25T11:20:44.268Z,135.00
2018-08-25T11:21:44.322Z,157.50
2018-08-25T11:22:44.334Z,180.00
2018-08-25T11:23:44.391Z,180.00
2018-08-25T11:24:44.307Z,157.50
2018-08-25T11:25:44.335Z,225.00
2018-08-25T11:26:44.259Z,225.00
2018-08-25T11:27:44.232Z,180.00
2018-08-25T11:28:44.311Z,225.00
2018-08-25T11:29:44.264Z,225.00
2018-08-25T11:30:44.248Z,225.00
2018-08-25T11:31:44.342Z,202.50
2018-08-25T11:32:44.234Z,180.00
2018-08-25T11:33:44.528Z,157.50
2018-08-25T11:34:44.310Z,202.50
2018-08-25T11:35:44.405Z,180.00
2018-08-25T11:36:44.349Z,225.00
2018-08-25T11:37:44.405Z,247.50
2018-08-25T11:38:44.356Z,270.00
2018-08-25T11:39:44.316Z,225.00
2018-08-25T11:40:44.319Z,202.50
2018-08-25T11:41:44.331Z,247.50
2018-08-25T11:42:44.271Z,247.50
2018-08-25T11:43:44.335Z,270.00
2018-08-25T11:44:44.318Z,247.50
2018-08-25T11:45:44.396Z,247.50
2018-08-25T11:46:44.319Z,247.50
2018-08-25T11:47:44.483Z,225.00
2018-08-25T11:48:44.393Z,247.50
2018-08-25T11:49:44.396Z,202.50
2018-08-25T11:50:44.321Z,225.00
2018-08-25T11:51:44.397Z,202.50
2018-08-25T11:52:44.324Z,225.00
2018-08-25T11:53:44.396Z,225.00
2018-08-25T11:54:44.338Z,247.50
2018-08-25T11:55:44.399Z,270.00
2018-08-25T11:56:44.325Z,247.50
2018-08-25T11:57:44.324Z,270.00
2018-08-25T11:58:44.329Z,247.50
2018-08-25T11:59:44.401Z,247.50
2018-08-25T12:00:44.370Z,247.50
2018-08-25T12:01:44.403Z,247.50
2018-08-25T12:02:44.329Z,225.00
2018-08-25T12:03:44.406Z,247.50
2018-08-25T12:04:44.334Z,225.00
2018-08-25T12:05:44.403Z,247.50
2018-08-25T12:06:44.339Z,247.50
2018-08-25T12:07:44.407Z,225.00
2018-08-25T12:08:44.332Z,157.50
2018-08-25T12:09:44.435Z,225.00
2018-08-25T12:10:44.332Z,202.50
2018-08-25T12:11:44.411Z,202.50
2018-08-25T12:12:44.336Z,247.50
2018-08-25T12:13:44.411Z,225.00
2018-08-25T12:14:44.303Z,225.00
2018-08-25T12:15:44.261Z,270.00
2018-08-25T12:16:44.247Z,202.50
2018-08-25T12:17:44.359Z,225.00
2018-08-25T12:18:44.308Z,225.00
2018-08-25T12:19:44.303Z,247.50
2018-08-25T12:20:44.363Z,247.50
2018-08-25T12:21:44.360Z,270.00
2018-08-25T12:22:44.363Z,202.50
2018-08-25T12:23:44.417Z,247.50
2018-08-25T12:24:44.417Z,180.00
2018-08-25T12:25:44.421Z,180.00
2018-08-25T12:26:44.345Z,112.50
2018-08-25T12:27:44.423Z,247.50
2018-08-25T12:28:44.353Z,247.50
2018-08-25T12:29:44.422Z,202.50
2018-08-25T12:30:44.499Z,180.00
2018-08-25T12:31:44.503Z,180.00
2018-08-25T12:32:44.562Z,202.50
2018-08-25T12:33:44.351Z,247.50